sensor_id;sensor_type;location;lat;lon;timestamp;temperature;humidity
21481;DHT22;10902;48.158;8.634;2023-11-18T00:00:38;1.90;99.90
21481;DHT22;10902;48.158;8.634;2023-11-18T00:03:24;1.80;99.90
21481;DHT22;10902;48.158;8.634;2023-11-18T00:06:10;1.80;99.90
21481;DHT22;10902;48.158;8.634;2023-11-18T00:08:55;1.70;99.90
21481;DHT22;10902;48.158;8.634;2023-11-18T00:11:42;1.70;99.90
21481;DHT22;10902;48.158;8.634;2023-11-18T00:14:28;1.70;99.90
21481;DHT22;10902;48.158;8.634;2023-11-18T00:17:13;1.70;99.90
21481;DHT22;10902;48.158;8.634;2023-11-18T00:19:59;1.70;99.90
21481;DHT22;10902;48.158;8.634;2023-11-18T00:22:44;1.60;99.90
21481;DHT22;10902;48.158;8.634;2023-11-18T00:25:30;1.50;99.90
21481;DHT22;10902;48.158;8.634;2023-11-18T00:28:17;1.50;99.90
21481;DHT22;10902;48.158;8.634;2023-11-18T00:31:05;1.50;99.90
21481;DHT22;10902;48.158;8.634;2023-11-18T00:33:51;1.50;99.90
21481;DHT22;10902;48.158;8.634;2023-11-18T00:36:37;1.40;99.90
21481;DHT22;10902;48.158;8.634;2023-11-18T00:39:23;1.50;99.90
21481;DHT22;10902;48.158;8.634;2023-11-18T00:42:09;1.50;99.90
21481;DHT22;10902;48.158;8.634;2023-11-18T00:44:55;1.40;99.90
21481;DHT22;10902;48.158;8.634;2023-11-18T00:47:40;1.40;99.90
21481;DHT22;10902;48.158;8.634;2023-11-18T00:50:26;1.30;99.90
21481;DHT22;10902;48.158;8.634;2023-11-18T00:53:12;1.30;99.90
21481;DHT22;10902;48.158;8.634;2023-11-18T00:55:57;1.30;99.90
21481;DHT22;10902;48.158;8.634;2023-11-18T00:58:43;1.30;99.90
21481;DHT22;10902;48.158;8.634;2023-11-18T01:01:29;1.20;99.90
21481;DHT22;10902;48.158;8.634;2023-11-18T01:04:17;1.20;99.90
21481;DHT22;10902;48.158;8.634;2023-11-18T01:07:03;1.10;99.90
21481;DHT22;10902;48.158;8.634;2023-11-18T01:09:49;1.10;99.90
21481;DHT22;10902;48.158;8.634;2023-11-18T01:12:35;1.00;99.90
21481;DHT22;10902;48.158;8.634;2023-11-18T01:15:21;1.00;99.90
21481;DHT22;10902;48.158;8.634;2023-11-18T01:18:08;1.00;99.90
21481;DHT22;10902;48.158;8.634;2023-11-18T01:20:54;0.90;99.90
21481;DHT22;10902;48.158;8.634;2023-11-18T01:23:40;0.90;99.90
21481;DHT22;10902;48.158;8.634;2023-11-18T01:26:30;0.80;99.90
21481;DHT22;10902;48.158;8.634;2023-11-18T01:29:16;0.80;99.90
21481;DHT22;10902;48.158;8.634;2023-11-18T01:32:01;0.70;99.90
21481;DHT22;10902;48.158;8.634;2023-11-18T01:34:54;0.70;99.90
21481;DHT22;10902;48.158;8.634;2023-11-18T01:37:40;0.70;99.90
21481;DHT22;10902;48.158;8.634;2023-11-18T01:40:25;0.70;99.90
21481;DHT22;10902;48.158;8.634;2023-11-18T01:43:11;0.70;99.90
21481;DHT22;10902;48.158;8.634;2023-11-18T01:46:00;0.70;99.90
21481;DHT22;10902;48.158;8.634;2023-11-18T01:48:48;0.60;99.90
21481;DHT22;10902;48.158;8.634;2023-11-18T01:51:34;0.70;99.90
21481;DHT22;10902;48.158;8.634;2023-11-18T01:54:22;0.80;99.90
21481;DHT22;10902;48.158;8.634;2023-11-18T01:57:09;0.80;99.90
21481;DHT22;10902;48.158;8.634;2023-11-18T01:59:55;0.90;99.90
21481;DHT22;10902;48.158;8.634;2023-11-18T02:02:56;0.80;99.90
21481;DHT22;10902;48.158;8.634;2023-11-18T02:05:41;0.80;99.90
21481;DHT22;10902;48.158;8.634;2023-11-18T02:08:27;0.70;99.90
21481;DHT22;10902;48.158;8.634;2023-11-18T02:11:20;0.80;99.90
21481;DHT22;10902;48.158;8.634;2023-11-18T02:14:20;0.70;99.90
21481;DHT22;10902;48.158;8.634;2023-11-18T02:17:09;0.60;99.90
21481;DHT22;10902;48.158;8.634;2023-11-18T02:19:59;0.60;99.90
21481;DHT22;10902;48.158;8.634;2023-11-18T02:22:50;0.70;99.90
21481;DHT22;10902;48.158;8.634;2023-11-18T02:25:45;0.70;99.90
21481;DHT22;10902;48.158;8.634;2023-11-18T02:28:31;0.70;99.90
21481;DHT22;10902;48.158;8.634;2023-11-18T02:31:22;0.70;99.90
21481;DHT22;10902;48.158;8.634;2023-11-18T02:34:16;0.60;99.90
21481;DHT22;10902;48.158;8.634;2023-11-18T02:37:07;0.60;99.90
21481;DHT22;10902;48.158;8.634;2023-11-18T02:40:01;0.60;99.90
21481;DHT22;10902;48.158;8.634;2023-11-18T02:42:51;0.60;99.90
21481;DHT22;10902;48.158;8.634;2023-11-18T02:45:38;0.70;99.90
21481;DHT22;10902;48.158;8.634;2023-11-18T02:48:26;0.70;99.90
21481;DHT22;10902;48.158;8.634;2023-11-18T02:51:13;0.70;99.90
21481;DHT22;10902;48.158;8.634;2023-11-18T02:53:59;0.60;99.90
21481;DHT22;10902;48.158;8.634;2023-11-18T02:56:45;0.60;99.90
21481;DHT22;10902;48.158;8.634;2023-11-18T02:59:30;0.50;99.90
21481;DHT22;10902;48.158;8.634;2023-11-18T03:02:16;0.60;99.90
21481;DHT22;10902;48.158;8.634;2023-11-18T03:05:02;0.50;99.90
21481;DHT22;10902;48.158;8.634;2023-11-18T03:07:48;0.50;99.90
21481;DHT22;10902;48.158;8.634;2023-11-18T03:10:39;0.40;99.90
21481;DHT22;10902;48.158;8.634;2023-11-18T03:13:25;0.40;99.90
21481;DHT22;10902;48.158;8.634;2023-11-18T03:16:11;0.30;99.90
21481;DHT22;10902;48.158;8.634;2023-11-18T03:18:58;0.30;99.90
21481;DHT22;10902;48.158;8.634;2023-11-18T03:21:44;0.20;99.90
21481;DHT22;10902;48.158;8.634;2023-11-18T03:24:29;0.30;99.90
21481;DHT22;10902;48.158;8.634;2023-11-18T03:27:15;0.30;99.90
21481;DHT22;10902;48.158;8.634;2023-11-18T03:30:04;0.20;99.90
21481;DHT22;10902;48.158;8.634;2023-11-18T03:32:51;0.20;99.90
21481;DHT22;10902;48.158;8.634;2023-11-18T03:35:37;0.30;99.90
21481;DHT22;10902;48.158;8.634;2023-11-18T03:38:23;0.20;99.90
21481;DHT22;10902;48.158;8.634;2023-11-18T03:41:09;0.30;99.90
21481;DHT22;10902;48.158;8.634;2023-11-18T03:43:54;0.30;99.90
21481;DHT22;10902;48.158;8.634;2023-11-18T03:46:40;0.20;99.90
21481;DHT22;10902;48.158;8.634;2023-11-18T03:49:26;0.10;99.90
21481;DHT22;10902;48.158;8.634;2023-11-18T03:52:12;0.00;99.90
21481;DHT22;10902;48.158;8.634;2023-11-18T03:54:58;-0.10;99.90
21481;DHT22;10902;48.158;8.634;2023-11-18T03:57:43;0.00;99.90
21481;DHT22;10902;48.158;8.634;2023-11-18T04:00:30;-0.10;99.90
21481;DHT22;10902;48.158;8.634;2023-11-18T04:03:16;-0.20;99.90
21481;DHT22;10902;48.158;8.634;2023-11-18T04:06:02;-0.10;99.90
21481;DHT22;10902;48.158;8.634;2023-11-18T04:08:49;-0.10;99.90
21481;DHT22;10902;48.158;8.634;2023-11-18T04:11:34;0.10;99.90
21481;DHT22;10902;48.158;8.634;2023-11-18T04:14:20;0.20;99.90
21481;DHT22;10902;48.158;8.634;2023-11-18T04:17:06;0.10;99.90
21481;DHT22;10902;48.158;8.634;2023-11-18T04:19:52;0.10;99.90
21481;DHT22;10902;48.158;8.634;2023-11-18T04:22:41;0.10;99.90
21481;DHT22;10902;48.158;8.634;2023-11-18T04:25:26;0.00;99.90
21481;DHT22;10902;48.158;8.634;2023-11-18T04:28:13;-0.10;99.90
21481;DHT22;10902;48.158;8.634;2023-11-18T04:30:59;0.00;99.90
21481;DHT22;10902;48.158;8.634;2023-11-18T04:33:44;0.00;99.90
21481;DHT22;10902;48.158;8.634;2023-11-18T04:36:30;-0.20;99.90
21481;DHT22;10902;48.158;8.634;2023-11-18T04:39:16;-0.40;99.90
21481;DHT22;10902;48.158;8.634;2023-11-18T04:42:03;-0.50;99.90
21481;DHT22;10902;48.158;8.634;2023-11-18T04:44:48;-0.20;99.90
21481;DHT22;10902;48.158;8.634;2023-11-18T04:47:34;0.10;99.90
21481;DHT22;10902;48.158;8.634;2023-11-18T04:50:19;0.20;99.90
21481;DHT22;10902;48.158;8.634;2023-11-18T04:53:06;-0.10;99.90
21481;DHT22;10902;48.158;8.634;2023-11-18T04:55:53;-0.10;99.90
21481;DHT22;10902;48.158;8.634;2023-11-18T04:58:39;0.00;99.90
21481;DHT22;10902;48.158;8.634;2023-11-18T05:01:25;0.00;99.90
21481;DHT22;10902;48.158;8.634;2023-11-18T05:04:11;0.00;99.90
21481;DHT22;10902;48.158;8.634;2023-11-18T05:06:56;-0.10;99.90
21481;DHT22;10902;48.158;8.634;2023-11-18T05:09:42;-0.10;99.90
21481;DHT22;10902;48.158;8.634;2023-11-18T05:12:28;-0.10;99.90
21481;DHT22;10902;48.158;8.634;2023-11-18T05:15:14;-0.20;99.90
21481;DHT22;10902;48.158;8.634;2023-11-18T05:18:00;-0.20;99.90
21481;DHT22;10902;48.158;8.634;2023-11-18T05:20:46;-0.20;99.90
21481;DHT22;10902;48.158;8.634;2023-11-18T05:23:35;-0.20;99.90
21481;DHT22;10902;48.158;8.634;2023-11-18T05:26:23;-0.20;99.90
21481;DHT22;10902;48.158;8.634;2023-11-18T05:29:09;-0.30;99.90
21481;DHT22;10902;48.158;8.634;2023-11-18T05:31:55;-0.30;99.90
21481;DHT22;10902;48.158;8.634;2023-11-18T05:34:41;-0.30;99.90
21481;DHT22;10902;48.158;8.634;2023-11-18T05:37:27;-0.20;99.90
21481;DHT22;10902;48.158;8.634;2023-11-18T05:40:20;-0.30;99.90
21481;DHT22;10902;48.158;8.634;2023-11-18T05:43:06;-0.30;99.90
21481;DHT22;10902;48.158;8.634;2023-11-18T05:46:01;-0.40;99.90
21481;DHT22;10902;48.158;8.634;2023-11-18T05:49:06;-0.50;99.90
21481;DHT22;10902;48.158;8.634;2023-11-18T05:51:53;-0.50;99.90
21481;DHT22;10902;48.158;8.634;2023-11-18T05:54:38;-0.40;99.90
21481;DHT22;10902;48.158;8.634;2023-11-18T05:57:24;-0.50;99.90
21481;DHT22;10902;48.158;8.634;2023-11-18T06:00:13;-0.50;99.90
21481;DHT22;10902;48.158;8.634;2023-11-18T06:03:01;-0.40;99.90
21481;DHT22;10902;48.158;8.634;2023-11-18T06:05:47;-0.40;99.90
21481;DHT22;10902;48.158;8.634;2023-11-18T06:08:34;-0.50;99.90
21481;DHT22;10902;48.158;8.634;2023-11-18T06:11:20;-0.40;99.90
21481;DHT22;10902;48.158;8.634;2023-11-18T06:14:06;-0.40;99.90
21481;DHT22;10902;48.158;8.634;2023-11-18T06:16:53;-0.40;99.90
21481;DHT22;10902;48.158;8.634;2023-11-18T06:19:39;-0.50;99.90
21481;DHT22;10902;48.158;8.634;2023-11-18T06:22:25;-0.50;99.90
21481;DHT22;10902;48.158;8.634;2023-11-18T06:25:11;-0.40;99.90
21481;DHT22;10902;48.158;8.634;2023-11-18T06:27:58;-0.50;99.90
21481;DHT22;10902;48.158;8.634;2023-11-18T06:30:43;-0.50;99.90
21481;DHT22;10902;48.158;8.634;2023-11-18T06:33:29;-0.50;99.90
21481;DHT22;10902;48.158;8.634;2023-11-18T06:39:00;-0.40;99.90
21481;DHT22;10902;48.158;8.634;2023-11-18T06:41:46;-0.40;99.90
21481;DHT22;10902;48.158;8.634;2023-11-18T06:44:36;-0.40;99.90
21481;DHT22;10902;48.158;8.634;2023-11-18T06:47:21;-0.40;99.90
21481;DHT22;10902;48.158;8.634;2023-11-18T06:50:08;-0.40;99.90
21481;DHT22;10902;48.158;8.634;2023-11-18T06:52:54;-0.40;99.90
21481;DHT22;10902;48.158;8.634;2023-11-18T06:55:48;-0.40;99.90
21481;DHT22;10902;48.158;8.634;2023-11-18T06:58:33;-0.30;99.90
21481;DHT22;10902;48.158;8.634;2023-11-18T07:01:22;-0.40;99.90
21481;DHT22;10902;48.158;8.634;2023-11-18T07:04:08;-0.40;99.90
21481;DHT22;10902;48.158;8.634;2023-11-18T07:06:54;-0.30;99.90
21481;DHT22;10902;48.158;8.634;2023-11-18T07:09:39;-0.30;99.90
21481;DHT22;10902;48.158;8.634;2023-11-18T07:12:25;-0.30;99.90
21481;DHT22;10902;48.158;8.634;2023-11-18T07:15:11;-0.20;99.90
21481;DHT22;10902;48.158;8.634;2023-11-18T07:17:57;-0.30;99.90
21481;DHT22;10902;48.158;8.634;2023-11-18T07:20:43;-0.30;99.90
21481;DHT22;10902;48.158;8.634;2023-11-18T07:23:29;-0.20;99.90
21481;DHT22;10902;48.158;8.634;2023-11-18T07:26:14;-0.30;99.90
21481;DHT22;10902;48.158;8.634;2023-11-18T07:29:00;-0.30;99.90
21481;DHT22;10902;48.158;8.634;2023-11-18T07:31:46;-0.20;99.90
21481;DHT22;10902;48.158;8.634;2023-11-18T07:34:32;-0.20;99.90
21481;DHT22;10902;48.158;8.634;2023-11-18T07:37:21;-0.10;99.90
21481;DHT22;10902;48.158;8.634;2023-11-18T07:40:07;-0.10;99.90
21481;DHT22;10902;48.158;8.634;2023-11-18T07:42:54;-0.10;99.90
21481;DHT22;10902;48.158;8.634;2023-11-18T07:45:56;-0.10;99.90
21481;DHT22;10902;48.158;8.634;2023-11-18T07:48:42;0.00;99.90
21481;DHT22;10902;48.158;8.634;2023-11-18T07:51:39;-0.10;99.90
21481;DHT22;10902;48.158;8.634;2023-11-18T07:54:27;0.00;99.90
21481;DHT22;10902;48.158;8.634;2023-11-18T07:57:13;0.00;99.90
21481;DHT22;10902;48.158;8.634;2023-11-18T07:59:59;0.10;99.90
21481;DHT22;10902;48.158;8.634;2023-11-18T08:02:50;0.10;99.90
21481;DHT22;10902;48.158;8.634;2023-11-18T08:05:44;0.10;99.90
21481;DHT22;10902;48.158;8.634;2023-11-18T08:08:29;0.10;99.90
21481;DHT22;10902;48.158;8.634;2023-11-18T08:11:15;0.10;99.90
21481;DHT22;10902;48.158;8.634;2023-11-18T08:14:02;0.20;99.90
21481;DHT22;10902;48.158;8.634;2023-11-18T08:16:48;0.20;99.90
21481;DHT22;10902;48.158;8.634;2023-11-18T08:19:35;0.30;99.90
21481;DHT22;10902;48.158;8.634;2023-11-18T08:22:21;0.30;99.90
21481;DHT22;10902;48.158;8.634;2023-11-18T08:25:08;0.40;99.90
21481;DHT22;10902;48.158;8.634;2023-11-18T08:27:54;0.40;99.90
21481;DHT22;10902;48.158;8.634;2023-11-18T08:30:40;0.40;99.90
21481;DHT22;10902;48.158;8.634;2023-11-18T08:33:25;0.50;99.90
21481;DHT22;10902;48.158;8.634;2023-11-18T08:36:11;0.60;99.90
21481;DHT22;10902;48.158;8.634;2023-11-18T08:38:57;0.70;99.90
21481;DHT22;10902;48.158;8.634;2023-11-18T08:41:43;0.70;99.90
21481;DHT22;10902;48.158;8.634;2023-11-18T08:44:29;0.70;99.90
21481;DHT22;10902;48.158;8.634;2023-11-18T08:47:14;0.80;99.90
21481;DHT22;10902;48.158;8.634;2023-11-18T08:50:00;0.90;99.90
21481;DHT22;10902;48.158;8.634;2023-11-18T08:52:57;0.90;99.90
21481;DHT22;10902;48.158;8.634;2023-11-18T08:55:45;0.90;99.90
21481;DHT22;10902;48.158;8.634;2023-11-18T08:58:36;1.10;99.90
21481;DHT22;10902;48.158;8.634;2023-11-18T09:01:23;1.20;99.90
21481;DHT22;10902;48.158;8.634;2023-11-18T09:04:25;1.30;99.90
21481;DHT22;10902;48.158;8.634;2023-11-18T09:07:11;1.40;99.90
21481;DHT22;10902;48.158;8.634;2023-11-18T09:09:56;1.40;99.90
21481;DHT22;10902;48.158;8.634;2023-11-18T09:12:43;1.50;99.90
21481;DHT22;10902;48.158;8.634;2023-11-18T09:15:30;1.60;99.90
21481;DHT22;10902;48.158;8.634;2023-11-18T09:18:16;1.70;99.90
21481;DHT22;10902;48.158;8.634;2023-11-18T09:21:03;1.90;99.90
21481;DHT22;10902;48.158;8.634;2023-11-18T09:23:51;2.20;99.90
21481;DHT22;10902;48.158;8.634;2023-11-18T09:26:36;2.60;99.90
21481;DHT22;10902;48.158;8.634;2023-11-18T09:29:25;3.10;99.90
21481;DHT22;10902;48.158;8.634;2023-11-18T09:32:11;3.60;99.90
21481;DHT22;10902;48.158;8.634;2023-11-18T09:34:58;3.60;99.90
21481;DHT22;10902;48.158;8.634;2023-11-18T09:37:44;3.60;99.90
21481;DHT22;10902;48.158;8.634;2023-11-18T09:40:32;3.90;99.90
21481;DHT22;10902;48.158;8.634;2023-11-18T09:43:24;3.90;99.90
21481;DHT22;10902;48.158;8.634;2023-11-18T09:46:15;3.80;99.90
21481;DHT22;10902;48.158;8.634;2023-11-18T09:49:12;4.00;99.90
21481;DHT22;10902;48.158;8.634;2023-11-18T09:52:03;4.20;99.90
21481;DHT22;10902;48.158;8.634;2023-11-18T09:55:02;4.00;99.90
21481;DHT22;10902;48.158;8.634;2023-11-18T09:57:52;3.70;99.90
21481;DHT22;10902;48.158;8.634;2023-11-18T10:00:43;3.50;99.90
21481;DHT22;10902;48.158;8.634;2023-11-18T10:03:29;3.70;99.90
21481;DHT22;10902;48.158;8.634;2023-11-18T10:06:16;3.90;99.90
21481;DHT22;10902;48.158;8.634;2023-11-18T10:09:03;4.10;99.90
21481;DHT22;10902;48.158;8.634;2023-11-18T10:12:00;4.10;99.90
21481;DHT22;10902;48.158;8.634;2023-11-18T10:14:50;4.30;99.90
21481;DHT22;10902;48.158;8.634;2023-11-18T10:17:45;4.60;99.90
21481;DHT22;10902;48.158;8.634;2023-11-18T10:23:30;4.00;99.90
21481;DHT22;10902;48.158;8.634;2023-11-18T10:26:19;3.90;99.90
21481;DHT22;10902;48.158;8.634;2023-11-18T10:29:15;4.10;99.90
21481;DHT22;10902;48.158;8.634;2023-11-18T10:32:05;4.40;99.90
21481;DHT22;10902;48.158;8.634;2023-11-18T10:34:57;4.20;99.90
21481;DHT22;10902;48.158;8.634;2023-11-18T10:37:42;4.10;99.90
21481;DHT22;10902;48.158;8.634;2023-11-18T10:40:28;4.20;99.90
21481;DHT22;10902;48.158;8.634;2023-11-18T10:43:14;4.30;99.90
21481;DHT22;10902;48.158;8.634;2023-11-18T10:46:06;4.30;99.90
21481;DHT22;10902;48.158;8.634;2023-11-18T10:48:58;4.40;99.90
21481;DHT22;10902;48.158;8.634;2023-11-18T10:51:44;4.60;99.90
21481;DHT22;10902;48.158;8.634;2023-11-18T10:54:33;4.40;99.90
21481;DHT22;10902;48.158;8.634;2023-11-18T10:57:20;4.40;99.90
21481;DHT22;10902;48.158;8.634;2023-11-18T11:00:06;4.40;99.90
21481;DHT22;10902;48.158;8.634;2023-11-18T11:03:04;4.60;99.90
21481;DHT22;10902;48.158;8.634;2023-11-18T11:05:50;4.60;99.90
21481;DHT22;10902;48.158;8.634;2023-11-18T11:08:38;4.50;99.90
21481;DHT22;10902;48.158;8.634;2023-11-18T11:11:28;4.70;99.90
21481;DHT22;10902;48.158;8.634;2023-11-18T11:14:15;4.60;99.90
21481;DHT22;10902;48.158;8.634;2023-11-18T11:17:07;4.90;99.90
21481;DHT22;10902;48.158;8.634;2023-11-18T11:20:06;4.70;99.90
21481;DHT22;10902;48.158;8.634;2023-11-18T11:29:30;4.40;99.90
21481;DHT22;10902;48.158;8.634;2023-11-18T11:32:24;4.50;99.90
21481;DHT22;10902;48.158;8.634;2023-11-18T11:35:22;4.40;99.90
21481;DHT22;10902;48.158;8.634;2023-11-18T11:38:08;4.40;99.90
21481;DHT22;10902;48.158;8.634;2023-11-18T11:41:00;4.40;99.90
21481;DHT22;10902;48.158;8.634;2023-11-18T11:43:50;4.60;99.90
21481;DHT22;10902;48.158;8.634;2023-11-18T11:46:36;4.70;99.90
21481;DHT22;10902;48.158;8.634;2023-11-18T11:49:23;4.70;99.90
21481;DHT22;10902;48.158;8.634;2023-11-18T11:52:30;4.60;99.90
21481;DHT22;10902;48.158;8.634;2023-11-18T11:56:07;4.70;99.90
21481;DHT22;10902;48.158;8.634;2023-11-18T11:58:31;4.60;99.90
21481;DHT22;10902;48.158;8.634;2023-11-18T12:01:24;4.60;99.90
21481;DHT22;10902;48.158;8.634;2023-11-18T12:04:15;4.70;99.90
21481;DHT22;10902;48.158;8.634;2023-11-18T12:07:09;4.60;99.90
21481;DHT22;10902;48.158;8.634;2023-11-18T12:09:58;4.60;99.90
21481;DHT22;10902;48.158;8.634;2023-11-18T12:12:44;4.60;99.90
21481;DHT22;10902;48.158;8.634;2023-11-18T12:22:14;4.70;99.90
21481;DHT22;10902;48.158;8.634;2023-11-18T12:28:07;4.60;99.90
21481;DHT22;10902;48.158;8.634;2023-11-18T12:30:54;4.60;99.90
21481;DHT22;10902;48.158;8.634;2023-11-18T12:37:05;4.60;99.90
21481;DHT22;10902;48.158;8.634;2023-11-18T12:40:04;4.70;99.90
21481;DHT22;10902;48.158;8.634;2023-11-18T12:43:02;4.70;99.90
21481;DHT22;10902;48.158;8.634;2023-11-18T12:49:02;4.70;99.90
21481;DHT22;10902;48.158;8.634;2023-11-18T12:51:48;4.70;99.90
21481;DHT22;10902;48.158;8.634;2023-11-18T12:54:34;4.60;99.90
21481;DHT22;10902;48.158;8.634;2023-11-18T12:57:27;4.70;99.90
21481;DHT22;10902;48.158;8.634;2023-11-18T13:00:17;4.70;99.90
21481;DHT22;10902;48.158;8.634;2023-11-18T13:03:12;4.60;99.90
21481;DHT22;10902;48.158;8.634;2023-11-18T13:06:00;4.60;99.90
21481;DHT22;10902;48.158;8.634;2023-11-18T13:08:46;4.60;99.90
21481;DHT22;10902;48.158;8.634;2023-11-18T13:11:32;4.70;99.90
21481;DHT22;10902;48.158;8.634;2023-11-18T13:14:32;4.80;99.90
21481;DHT22;10902;48.158;8.634;2023-11-18T13:17:21;4.80;99.90
21481;DHT22;10902;48.158;8.634;2023-11-18T13:20:14;4.80;99.90
21481;DHT22;10902;48.158;8.634;2023-11-18T13:23:00;4.90;99.90
21481;DHT22;10902;48.158;8.634;2023-11-18T13:25:47;4.90;99.90
21481;DHT22;10902;48.158;8.634;2023-11-18T13:28:32;4.80;99.90
21481;DHT22;10902;48.158;8.634;2023-11-18T13:31:18;4.80;99.90
21481;DHT22;10902;48.158;8.634;2023-11-18T13:34:04;4.90;99.90
21481;DHT22;10902;48.158;8.634;2023-11-18T13:36:52;4.80;99.90
21481;DHT22;10902;48.158;8.634;2023-11-18T13:39:38;4.80;99.90
21481;DHT22;10902;48.158;8.634;2023-11-18T13:42:25;4.80;99.90
21481;DHT22;10902;48.158;8.634;2023-11-18T13:45:19;4.70;99.90
21481;DHT22;10902;48.158;8.634;2023-11-18T13:48:05;4.70;99.90
21481;DHT22;10902;48.158;8.634;2023-11-18T13:50:52;4.70;99.90
21481;DHT22;10902;48.158;8.634;2023-11-18T13:53:40;4.60;99.90
21481;DHT22;10902;48.158;8.634;2023-11-18T13:56:27;4.60;99.90
21481;DHT22;10902;48.158;8.634;2023-11-18T13:59:14;4.70;99.90
21481;DHT22;10902;48.158;8.634;2023-11-18T14:02:00;4.70;99.90
21481;DHT22;10902;48.158;8.634;2023-11-18T14:04:50;4.60;99.90
21481;DHT22;10902;48.158;8.634;2023-11-18T14:07:38;4.60;99.90
21481;DHT22;10902;48.158;8.634;2023-11-18T14:10:24;4.50;99.90
21481;DHT22;10902;48.158;8.634;2023-11-18T14:13:14;4.50;99.90
21481;DHT22;10902;48.158;8.634;2023-11-18T14:16:02;4.50;99.90
21481;DHT22;10902;48.158;8.634;2023-11-18T14:18:49;4.50;99.90
21481;DHT22;10902;48.158;8.634;2023-11-18T14:21:34;4.40;99.90
21481;DHT22;10902;48.158;8.634;2023-11-18T14:24:26;4.40;99.90
21481;DHT22;10902;48.158;8.634;2023-11-18T14:27:14;4.40;99.90
21481;DHT22;10902;48.158;8.634;2023-11-18T14:29:59;4.30;99.90
21481;DHT22;10902;48.158;8.634;2023-11-18T14:32:45;4.30;99.90
21481;DHT22;10902;48.158;8.634;2023-11-18T14:35:34;4.30;99.90
21481;DHT22;10902;48.158;8.634;2023-11-18T14:38:20;4.30;99.90
21481;DHT22;10902;48.158;8.634;2023-11-18T14:41:06;4.30;99.90
21481;DHT22;10902;48.158;8.634;2023-11-18T14:43:53;4.30;99.90
21481;DHT22;10902;48.158;8.634;2023-11-18T14:46:39;4.20;99.90
21481;DHT22;10902;48.158;8.634;2023-11-18T14:49:26;4.30;99.90
21481;DHT22;10902;48.158;8.634;2023-11-18T14:52:11;4.20;99.90
21481;DHT22;10902;48.158;8.634;2023-11-18T14:54:57;4.20;99.90
21481;DHT22;10902;48.158;8.634;2023-11-18T14:57:43;4.20;99.90
21481;DHT22;10902;48.158;8.634;2023-11-18T15:00:29;4.20;99.90
21481;DHT22;10902;48.158;8.634;2023-11-18T15:03:17;4.10;99.90
21481;DHT22;10902;48.158;8.634;2023-11-18T15:06:08;4.10;99.90
21481;DHT22;10902;48.158;8.634;2023-11-18T15:08:57;4.10;99.90
21481;DHT22;10902;48.158;8.634;2023-11-18T15:11:42;4.10;99.90
21481;DHT22;10902;48.158;8.634;2023-11-18T15:14:28;4.10;99.90
21481;DHT22;10902;48.158;8.634;2023-11-18T15:17:14;4.10;99.90
21481;DHT22;10902;48.158;8.634;2023-11-18T15:20:11;4.00;99.90
21481;DHT22;10902;48.158;8.634;2023-11-18T15:22:57;4.00;99.90
21481;DHT22;10902;48.158;8.634;2023-11-18T15:25:43;4.00;99.90
21481;DHT22;10902;48.158;8.634;2023-11-18T15:28:30;4.00;99.90
21481;DHT22;10902;48.158;8.634;2023-11-18T15:31:22;4.00;99.90
21481;DHT22;10902;48.158;8.634;2023-11-18T15:34:11;4.00;99.90
21481;DHT22;10902;48.158;8.634;2023-11-18T15:36:57;4.00;99.90
21481;DHT22;10902;48.158;8.634;2023-11-18T15:39:46;4.00;99.90
21481;DHT22;10902;48.158;8.634;2023-11-18T15:42:31;4.00;99.90
21481;DHT22;10902;48.158;8.634;2023-11-18T15:45:20;3.90;99.90
21481;DHT22;10902;48.158;8.634;2023-11-18T15:48:06;3.90;99.90
21481;DHT22;10902;48.158;8.634;2023-11-18T15:50:55;4.00;99.90
21481;DHT22;10902;48.158;8.634;2023-11-18T15:53:42;3.90;99.90
21481;DHT22;10902;48.158;8.634;2023-11-18T15:56:28;3.90;99.90
21481;DHT22;10902;48.158;8.634;2023-11-18T15:59:13;4.00;99.90
21481;DHT22;10902;48.158;8.634;2023-11-18T16:01:59;4.00;99.90
21481;DHT22;10902;48.158;8.634;2023-11-18T16:04:45;3.90;99.90
21481;DHT22;10902;48.158;8.634;2023-11-18T16:07:30;4.00;99.90
21481;DHT22;10902;48.158;8.634;2023-11-18T16:10:17;4.00;99.90
21481;DHT22;10902;48.158;8.634;2023-11-18T16:13:03;4.00;99.90
21481;DHT22;10902;48.158;8.634;2023-11-18T16:15:48;4.00;99.90
21481;DHT22;10902;48.158;8.634;2023-11-18T16:18:34;4.00;99.90
21481;DHT22;10902;48.158;8.634;2023-11-18T16:21:23;4.00;99.90
21481;DHT22;10902;48.158;8.634;2023-11-18T16:24:08;4.00;99.90
21481;DHT22;10902;48.158;8.634;2023-11-18T16:26:54;4.00;99.90
21481;DHT22;10902;48.158;8.634;2023-11-18T16:29:40;4.00;99.90
21481;DHT22;10902;48.158;8.634;2023-11-18T16:32:25;4.00;99.90
21481;DHT22;10902;48.158;8.634;2023-11-18T16:35:11;4.00;99.90
21481;DHT22;10902;48.158;8.634;2023-11-18T16:37:57;3.90;99.90
21481;DHT22;10902;48.158;8.634;2023-11-18T16:40:44;4.00;99.90
21481;DHT22;10902;48.158;8.634;2023-11-18T16:43:30;4.10;99.90
21481;DHT22;10902;48.158;8.634;2023-11-18T16:46:17;4.10;99.90
21481;DHT22;10902;48.158;8.634;2023-11-18T16:49:04;4.10;99.90
21481;DHT22;10902;48.158;8.634;2023-11-18T16:51:50;4.20;99.90
21481;DHT22;10902;48.158;8.634;2023-11-18T16:54:37;4.20;99.90
21481;DHT22;10902;48.158;8.634;2023-11-18T16:57:24;4.20;99.90
21481;DHT22;10902;48.158;8.634;2023-11-18T17:00:12;4.20;99.90
21481;DHT22;10902;48.158;8.634;2023-11-18T17:03:00;4.20;99.90
21481;DHT22;10902;48.158;8.634;2023-11-18T17:05:46;4.20;99.90
21481;DHT22;10902;48.158;8.634;2023-11-18T17:08:32;4.20;99.90
21481;DHT22;10902;48.158;8.634;2023-11-18T17:11:17;4.20;99.90
21481;DHT22;10902;48.158;8.634;2023-11-18T17:14:04;4.30;99.90
21481;DHT22;10902;48.158;8.634;2023-11-18T17:16:51;4.20;99.90
21481;DHT22;10902;48.158;8.634;2023-11-18T17:19:37;4.20;99.90
21481;DHT22;10902;48.158;8.634;2023-11-18T17:22:22;4.20;99.90
21481;DHT22;10902;48.158;8.634;2023-11-18T17:25:14;4.20;99.90
21481;DHT22;10902;48.158;8.634;2023-11-18T17:28:00;4.20;99.90
21481;DHT22;10902;48.158;8.634;2023-11-18T17:30:49;4.20;99.90
21481;DHT22;10902;48.158;8.634;2023-11-18T17:33:36;4.20;99.90
21481;DHT22;10902;48.158;8.634;2023-11-18T17:36:22;4.20;99.90
21481;DHT22;10902;48.158;8.634;2023-11-18T17:39:08;4.30;99.90
21481;DHT22;10902;48.158;8.634;2023-11-18T17:41:57;4.30;99.90
21481;DHT22;10902;48.158;8.634;2023-11-18T17:44:43;4.30;99.90
21481;DHT22;10902;48.158;8.634;2023-11-18T17:47:28;4.30;99.90
21481;DHT22;10902;48.158;8.634;2023-11-18T17:50:14;4.30;99.90
21481;DHT22;10902;48.158;8.634;2023-11-18T17:53:02;4.20;99.90
21481;DHT22;10902;48.158;8.634;2023-11-18T17:55:48;4.20;99.90
21481;DHT22;10902;48.158;8.634;2023-11-18T17:58:33;4.20;99.90
21481;DHT22;10902;48.158;8.634;2023-11-18T18:01:19;4.30;99.90
21481;DHT22;10902;48.158;8.634;2023-11-18T18:04:05;4.30;99.90
21481;DHT22;10902;48.158;8.634;2023-11-18T18:06:52;4.30;99.90
21481;DHT22;10902;48.158;8.634;2023-11-18T18:09:37;4.40;99.90
21481;DHT22;10902;48.158;8.634;2023-11-18T18:12:23;4.40;99.90
21481;DHT22;10902;48.158;8.634;2023-11-18T18:15:08;4.40;99.90
21481;DHT22;10902;48.158;8.634;2023-11-18T18:17:54;4.40;99.90
21481;DHT22;10902;48.158;8.634;2023-11-18T18:20:40;4.50;99.90